Time,TemperatureF,DewpointF,PressureIn,WindDirection,WindDirectionDegrees,WindSpeedMPH,WindSpeedGustMPH,Humidity,HourlyPrecipIn,Conditions,Clouds,dailyrainin,SolarRadiationWatts/m^2,SoftwareType,DateUTC
2015-05-24 00:04:00,50.1,46.1,30.05,NNE,18,0.0,0.0,86,0.03,-RA,SKC,0.00,0.0,WeatherDisplay:10.37,2015-05-24 08:04:00,
2015-05-24 00:09:00,50.1,46.1,30.06,NNE,18,1.2,1.2,86,0.02,-RA,SKC,0.00,0.0,WeatherDisplay:10.37,2015-05-24 08:09:00,
2015-05-24 00:14:00,50.2,46.2,30.06,NNE,18,0.0,0.0,86,0.02,-RA,SKC,0.00,0.0,WeatherDisplay:10.37,2015-05-24 08:14:00,
2015-05-24 00:19:00,50.1,46.1,30.06,NNE,18,0.0,0.0,86,0.02,-RA,SKC,0.00,0.0,WeatherDisplay:10.37,2015-05-24 08:19:00,
2015-05-24 00:24:00,50.2,46.2,30.06,NNE,18,2.3,2.3,86,0.03,-RA,SKC,0.01,0.0,WeatherDisplay:10.37,2015-05-24 08:24:00,
2015-05-24 00:29:00,50.3,46.3,30.06,NNE,18,0.0,0.0,86,0.02,-RA,SKC,0.01,0.0,WeatherDisplay:10.37,2015-05-24 08:29:00,
2015-05-24 00:34:00,50.2,46.2,30.06,NNE,18,1.2,0.0,86,0.02,-RA,SKC,0.01,0.0,WeatherDisplay:10.37,2015-05-24 08:34:00,
2015-05-24 00:39:00,50.1,46.1,30.06,NNE,18,2.3,2.3,86,0.01,-RA,SKC,0.01,0.0,WeatherDisplay:10.37,2015-05-24 08:39:00,
2015-05-24 00:44:00,50.1,46.1,30.06,NNE,18,0.0,0.0,86,0.01,-RA,SKC,0.01,0.0,WeatherDisplay:10.37,2015-05-24 08:44:00,
2015-05-24 00:49:00,50.1,46.1,30.06,NNE,18,3.5,3.5,86,0.01,-RA,SKC,0.01,0.0,WeatherDisplay:10.37,2015-05-24 08:49:00,
2015-05-24 00:54:00,50.1,46.1,30.07,NNE,18,0.0,0.0,86,0.01,-RA,SKC,0.01,0.0,WeatherDisplay:10.37,2015-05-24 08:54:00,
2015-05-24 00:59:00,50.1,46.1,30.07,NNE,18,0.0,0.0,86,0.01,-RA,SKC,0.01,0.0,WeatherDisplay:10.37,2015-05-24 08:59:00,
2015-05-24 01:04:00,50.1,46.1,30.07,NNE,18,0.0,0.0,86,0.01,-RA,SKC,0.01,0.0,WeatherDisplay:10.37,2015-05-24 09:04:00,
2015-05-24 01:09:00,49.9,45.9,30.07,NNE,18,0.0,0.0,86,0.01,-RA,SKC,0.01,0.0,WeatherDisplay:10.37,2015-05-24 09:09:00,
2015-05-24 01:14:00,49.9,45.9,30.07,NNE,18,0.0,0.0,86,0.01,-RA,SKC,0.01,0.0,WeatherDisplay:10.37,2015-05-24 09:14:00,
2015-05-24 01:19:00,49.8,45.8,30.07,NNE,18,3.5,3.5,86,0.01,-RA,SKC,0.01,0.0,WeatherDisplay:10.37,2015-05-24 09:19:00,
2015-05-24 01:24:00,49.9,45.9,30.07,NNE,18,0.0,0.0,86,0.00,-RA,SKC,0.01,0.0,WeatherDisplay:10.37,2015-05-24 09:24:00,
2015-05-24 01:29:00,50.0,46.0,30.07,NNE,18,2.3,2.3,86,0.00,-RA,SKC,0.01,0.0,WeatherDisplay:10.37,2015-05-24 09:29:00,
2015-05-24 01:34:00,49.9,45.9,30.07,NNE,18,0.0,0.0,86,0.00,-RA,SKC,0.01,0.0,WeatherDisplay:10.37,2015-05-24 09:34:00,
2015-05-24 01:39:00,49.8,45.8,30.07,NNE,18,1.2,1.2,86,0.00,-RA,SKC,0.01,0.0,WeatherDisplay:10.37,2015-05-24 09:39:00,
2015-05-24 01:44:00,49.9,45.9,30.07,NNE,18,1.2,0.0,86,0.00,-RA,SKC,0.01,0.0,WeatherDisplay:10.37,2015-05-24 09:44:00,
2015-05-24 01:49:00,49.9,45.9,30.07,NNE,18,2.3,2.3,86,0.00,-RA,SKC,0.01,0.0,WeatherDisplay:10.37,2015-05-24 09:49:00,
2015-05-24 01:54:00,50.0,46.3,30.07,NNE,18,2.3,2.3,87,0.00,-RA,SKC,0.01,0.0,WeatherDisplay:10.37,2015-05-24 09:54:00,
2015-05-24 01:59:00,50.1,46.4,30.07,NNE,18,0.0,0.0,87,0.00,-RA,SKC,0.01,0.0,WeatherDisplay:10.37,2015-05-24 09:59:00,
2015-05-24 02:04:00,50.1,46.4,30.08,NNE,18,0.0,0.0,87,0.00,BKN,SKC,0.01,0.0,WeatherDisplay:10.37,2015-05-24 10:04:00,
2015-05-24 02:09:00,50.0,46.0,30.08,NNE,18,0.0,0.0,86,0.00,BKN,SKC,0.01,0.0,WeatherDisplay:10.37,2015-05-24 10:09:00,
2015-05-24 02:14:00,50.1,46.4,30.08,NNE,17,3.5,3.5,87,0.00,BKN,SKC,0.01,0.0,WeatherDisplay:10.37,2015-05-24 10:14:00,
2015-05-24 02:19:00,50.2,46.5,30.08,NNE,17,2.3,2.3,87,0.00,BKN,SKC,0.01,0.0,WeatherDisplay:10.37,2015-05-24 10:19:00,
2015-05-24 02:24:00,50.2,46.5,30.08,NNE,17,1.2,1.2,87,0.00,BKN,SKC,0.01,0.0,WeatherDisplay:10.37,2015-05-24 10:24:00,
2015-05-24 02:29:00,50.1,46.4,30.08,NNE,17,1.2,1.2,87,0.00,BKN,SKC,0.01,0.0,WeatherDisplay:10.37,2015-05-24 10:29:00,
2015-05-24 02:34:00,49.9,45.9,30.08,NNE,17,2.3,2.3,86,0.00,BKN,SKC,0.01,0.0,WeatherDisplay:10.37,2015-05-24 10:34:00,
2015-05-24 02:39:00,49.6,45.6,30.08,NNE,17,0.0,0.1,86,0.00,BKN,SKC,0.01,0.0,WeatherDisplay:10.37,2015-05-24 10:39:00,
2015-05-24 02:44:00,49.4,45.4,30.07,NNE,17,3.0,3.0,86,0.00,BKN,SKC,0.01,0.0,WeatherDisplay:10.37,2015-05-24 10:44:00,
2015-05-24 02:49:00,49.4,45.4,30.08,NNE,17,2.3,2.3,86,0.00,BKN,SKC,0.01,0.0,WeatherDisplay:10.37,2015-05-24 10:49:00,
2015-05-24 02:54:00,49.5,45.8,30.08,NNE,17,0.0,0.2,87,0.00,BKN,SKC,0.01,0.0,WeatherDisplay:10.37,2015-05-24 10:54:00,
2015-05-24 02:59:00,49.6,45.9,30.08,NNE,17,0.0,0.0,87,0.00,BKN,SKC,0.01,0.0,WeatherDisplay:10.37,2015-05-24 10:59:00,
2015-05-24 03:04:00,49.7,46.0,30.08,NNE,17,0.0,0.0,87,0.00,OVC,SKC,0.01,0.0,WeatherDisplay:10.37,2015-05-24 11:04:00,
2015-05-24 03:10:00,49.8,46.1,30.08,NNE,17,0.0,0.0,87,0.00,OVC,SKC,0.01,0.0,WeatherDisplay:10.37,2015-05-24 11:10:00,
2015-05-24 03:15:00,49.8,46.1,30.08,NNE,17,0.0,0.0,87,0.00,OVC,SKC,0.01,0.0,WeatherDisplay:10.37,2015-05-24 11:15:00,
2015-05-24 03:25:00,49.6,45.9,30.08,NNE,17,0.0,0.0,87,0.00,OVC,SKC,0.01,0.0,WeatherDisplay:10.37,2015-05-24 11:25:00,
2015-05-24 03:30:00,49.5,45.5,30.08,NNE,17,0.0,0.0,86,0.00,OVC,SKC,0.01,0.0,WeatherDisplay:10.37,2015-05-24 11:30:00,
2015-05-24 03:35:00,49.4,45.4,30.08,NNE,17,0.0,0.0,86,0.00,OVC,SKC,0.01,0.0,WeatherDisplay:10.37,2015-05-24 11:35:00,
2015-05-24 03:40:00,49.3,45.6,30.09,NNE,17,0.0,0.0,87,0.00,OVC,SKC,0.01,0.0,WeatherDisplay:10.37,2015-05-24 11:40:00,
2015-05-24 03:45:00,49.3,45.6,30.09,NNE,17,0.0,0.0,87,0.00,OVC,SKC,0.01,0.0,WeatherDisplay:10.37,2015-05-24 11:45:00,
2015-05-24 03:50:00,49.4,45.7,30.09,NNE,17,0.0,0.0,87,0.00,OVC,SKC,0.01,0.0,WeatherDisplay:10.37,2015-05-24 11:50:00,
2015-05-24 03:55:00,49.4,45.7,30.09,NNE,17,0.0,0.0,87,0.00,OVC,SKC,0.01,0.0,WeatherDisplay:10.37,2015-05-24 11:55:00,
2015-05-24 04:00:00,49.4,45.7,30.09,WSW,247,5.0,5.0,87,0.00,OVC,SKC,0.01,0.0,WeatherDisplay:10.37,2015-05-24 12:00:00,
2015-05-24 04:05:00,48.7,44.7,30.09,SW,230,1.0,6.0,86,0.00,OVC,SKC,0.01,0.0,WeatherDisplay:10.37,2015-05-24 12:05:00,
2015-05-24 04:10:00,48.2,43.9,30.09,South,184,4.6,4.6,85,0.00,OVC,SKC,0.01,0.0,WeatherDisplay:10.37,2015-05-24 12:10:00,
2015-05-24 04:15:00,48.1,43.8,30.09,SW,233,6.9,6.9,85,0.00,OVC,SKC,0.01,0.0,WeatherDisplay:10.37,2015-05-24 12:15:00,
2015-05-24 04:20:00,48.2,43.6,30.09,SW,236,11.5,11.5,84,0.00,OVC,SKC,0.01,0.0,WeatherDisplay:10.37,2015-05-24 12:20:00,
2015-05-24 04:25:00,48.2,43.6,30.09,SW,225,6.9,6.9,84,0.00,OVC,SKC,0.01,0.0,WeatherDisplay:10.37,2015-05-24 12:25:00,
2015-05-24 04:30:00,48.2,43.6,30.09,West,264,3.5,3.5,84,0.00,OVC,SKC,0.01,0.0,WeatherDisplay:10.37,2015-05-24 12:30:00,
2015-05-24 04:35:00,48.1,43.2,30.09,SW,216,3.0,9.0,83,0.00,OVC,SKC,0.01,0.0,WeatherDisplay:10.37,2015-05-24 12:35:00,
2015-05-24 04:40:00,48.3,43.7,30.09,SW,220,6.9,6.9,84,0.00,OVC,SKC,0.01,0.0,WeatherDisplay:10.37,2015-05-24 12:40:00,
2015-05-24 04:45:00,48.2,43.3,30.09,SSE,155,5.8,5.8,83,0.00,OVC,SKC,0.01,0.0,WeatherDisplay:10.37,2015-05-24 12:45:00,
2015-05-24 04:50:00,48.1,43.2,30.09,SSW,212,2.0,5.0,83,0.00,OVC,SKC,0.01,0.0,WeatherDisplay:10.37,2015-05-24 12:50:00,
2015-05-24 04:55:00,47.9,43.0,30.09,SW,223,3.0,6.0,83,0.00,OVC,SKC,0.01,0.0,WeatherDisplay:10.37,2015-05-24 12:55:00,
2015-05-24 05:00:00,47.8,43.2,30.10,SSW,203,9.2,9.2,84,0.00,OVC,SKC,0.01,0.0,WeatherDisplay:10.37,2015-05-24 13:00:00,
2015-05-24 05:05:00,47.7,43.1,30.10,SSW,208,1.0,9.0,84,0.00,OVC,SKC,0.01,0.0,WeatherDisplay:10.37,2015-05-24 13:05:00,
2015-05-24 05:10:00,47.7,43.1,30.10,SSE,152,6.9,6.9,84,0.00,OVC,SKC,0.01,0.0,WeatherDisplay:10.37,2015-05-24 13:10:00,
2015-05-24 05:15:00,47.6,43.0,30.10,South,175,6.0,8.0,84,0.00,OVC,SKC,0.01,0.0,WeatherDisplay:10.37,2015-05-24 13:15:00,
2015-05-24 05:20:00,47.4,42.8,30.10,South,184,2.0,7.0,84,0.00,OVC,SKC,0.01,0.0,WeatherDisplay:10.37,2015-05-24 13:20:00,
2015-05-24 05:25:00,47.3,42.7,30.10,SW,218,5.8,5.8,84,0.00,OVC,SKC,0.01,5.0,WeatherDisplay:10.37,2015-05-24 13:25:00,
2015-05-24 05:30:00,47.2,42.6,30.10,SSW,197,2.3,2.3,84,0.00,OVC,SKC,0.01,7.0,WeatherDisplay:10.37,2015-05-24 13:30:00,
2015-05-24 05:35:00,47.2,42.6,30.10,SSW,197,1.0,5.0,84,0.00,OVC,SKC,0.01,11.0,WeatherDisplay:10.37,2015-05-24 13:35:00,
2015-05-24 05:40:00,47.2,42.6,30.10,SSW,198,3.5,3.5,84,0.00,OVC,SKC,0.01,12.0,WeatherDisplay:10.37,2015-05-24 13:40:00,
2015-05-24 05:45:00,47.2,42.6,30.10,SSW,213,3.5,3.5,84,0.00,OVC,SKC,0.01,12.0,WeatherDisplay:10.37,2015-05-24 13:45:00,
2015-05-24 05:50:00,47.2,42.6,30.11,WSW,242,3.5,3.5,84,0.00,OVC,SKC,0.01,18.0,WeatherDisplay:10.37,2015-05-24 13:50:00,
2015-05-24 05:55:00,47.1,42.5,30.10,SW,235,1.0,2.0,84,0.00,OVC,SKC,0.01,21.0,WeatherDisplay:10.37,2015-05-24 13:55:00,
2015-05-24 06:00:00,47.0,42.4,30.10,SW,216,3.5,3.5,84,0.00,OVC,SKC,0.01,25.0,WeatherDisplay:10.37,2015-05-24 14:00:00,
2015-05-24 06:05:00,46.8,42.2,30.10,SW,215,1.0,5.0,84,0.00,OVC,SKC,0.01,25.0,WeatherDisplay:10.37,2015-05-24 14:05:00,
2015-05-24 06:10:00,46.7,42.1,30.10,SW,217,0.0,0.0,84,0.00,OVC,SKC,0.01,26.0,WeatherDisplay:10.37,2015-05-24 14:10:00,
2015-05-24 06:15:00,46.6,42.0,30.10,SW,217,0.0,2.0,84,0.00,OVC,SKC,0.01,30.0,WeatherDisplay:10.37,2015-05-24 14:15:00,
2015-05-24 06:20:00,46.4,41.8,30.10,SW,217,0.0,0.0,84,0.00,OVC,SKC,0.01,35.0,WeatherDisplay:10.37,2015-05-24 14:20:00,
2015-05-24 06:25:00,46.4,42.1,30.10,SW,217,0.0,0.0,85,0.00,OVC,SKC,0.01,37.0,WeatherDisplay:10.37,2015-05-24 14:25:00,
2015-05-24 06:30:00,46.4,42.1,30.10,SW,217,2.3,2.3,85,0.00,OVC,SKC,0.01,32.0,WeatherDisplay:10.37,2015-05-24 14:30:00,
2015-05-24 06:35:00,46.6,42.3,30.10,SW,217,2.3,2.3,85,0.00,OVC,SKC,0.01,33.0,WeatherDisplay:10.37,2015-05-24 14:35:00,
2015-05-24 06:40:00,46.6,42.3,30.10,SW,217,1.2,1.2,85,0.00,OVC,SKC,0.01,37.0,WeatherDisplay:10.37,2015-05-24 14:40:00,
2015-05-24 06:45:00,46.6,42.3,30.11,SW,217,0.0,0.0,85,0.00,OVC,SKC,0.01,42.0,WeatherDisplay:10.37,2015-05-24 14:45:00,
2015-05-24 06:50:00,46.6,42.3,30.10,SW,217,0.0,0.0,85,0.00,OVC,SKC,0.01,47.0,WeatherDisplay:10.37,2015-05-24 14:50:00,
2015-05-24 06:55:00,46.7,42.4,30.10,SW,217,1.2,0.0,85,0.00,OVC,SKC,0.01,56.0,WeatherDisplay:10.37,2015-05-24 14:55:00,
2015-05-24 07:00:00,46.7,42.7,30.10,SW,217,0.0,0.0,86,0.00,OVC,SKC,0.01,60.0,WeatherDisplay:10.37,2015-05-24 15:00:00,
2015-05-24 07:05:00,46.8,42.8,30.10,SW,217,0.0,0.0,86,0.00,OVC,SKC,0.01,53.0,WeatherDisplay:10.37,2015-05-24 15:05:00,
2015-05-24 07:10:00,46.9,42.9,30.10,SW,217,0.0,0.2,86,0.00,OVC,SKC,0.01,44.0,WeatherDisplay:10.37,2015-05-24 15:10:00,
2015-05-24 07:15:00,46.9,42.6,30.10,SW,217,1.2,0.0,85,0.00,OVC,SKC,0.01,42.0,WeatherDisplay:10.37,2015-05-24 15:15:00,
2015-05-24 07:20:00,46.9,42.6,30.10,SW,217,0.0,0.0,85,0.00,OVC,SKC,0.01,44.0,WeatherDisplay:10.37,2015-05-24 15:20:00,
2015-05-24 07:25:00,47.0,42.7,30.10,SW,217,2.3,2.3,85,0.00,OVC,SKC,0.01,54.0,WeatherDisplay:10.37,2015-05-24 15:25:00,
2015-05-24 07:30:00,47.0,42.7,30.10,SW,217,1.2,1.2,85,0.00,OVC,SKC,0.01,53.0,WeatherDisplay:10.37,2015-05-24 15:30:00,
2015-05-24 07:35:00,47.0,42.7,30.10,SW,217,2.3,2.3,85,0.00,OVC,SKC,0.01,76.0,WeatherDisplay:10.37,2015-05-24 15:35:00,
2015-05-24 07:40:00,46.9,42.6,30.10,SW,217,1.2,1.2,85,0.00,OVC,SKC,0.01,63.0,WeatherDisplay:10.37,2015-05-24 15:40:00,
2015-05-24 07:45:00,47.0,42.7,30.10,SW,217,0.0,0.0,85,0.00,OVC,SKC,0.01,69.0,WeatherDisplay:10.37,2015-05-24 15:45:00,
2015-05-24 07:50:00,47.0,42.4,30.10,SW,217,1.2,0.0,84,0.00,OVC,SKC,0.01,53.0,WeatherDisplay:10.37,2015-05-24 15:50:00,
2015-05-24 07:55:00,47.0,42.4,30.10,SW,217,0.0,0.0,84,0.00,OVC,SKC,0.01,47.0,WeatherDisplay:10.37,2015-05-24 15:55:00,
2015-05-24 08:00:00,47.1,42.5,30.10,SW,217,0.0,0.0,84,0.00,OVC,SKC,0.01,74.0,WeatherDisplay:10.37,2015-05-24 16:00:00,
2015-05-24 08:05:00,47.2,42.6,30.10,SW,217,0.0,0.0,84,0.00,SCT,SKC,0.01,58.0,WeatherDisplay:10.37,2015-05-24 16:05:00,
2015-05-24 08:10:00,47.3,42.7,30.10,SW,217,1.2,1.2,84,0.00,SCT,SKC,0.01,65.0,WeatherDisplay:10.37,2015-05-24 16:10:00,
2015-05-24 08:15:00,47.4,42.8,30.10,SW,217,1.2,0.0,84,0.00,SCT,SKC,0.01,93.0,WeatherDisplay:10.37,2015-05-24 16:15:00,
2015-05-24 08:20:00,47.4,42.5,30.10,SW,217,0.0,0.0,83,0.00,SCT,SKC,0.01,93.0,WeatherDisplay:10.37,2015-05-24 16:20:00,
2015-05-24 08:25:00,47.5,42.6,30.10,SW,217,0.0,0.0,83,0.00,SCT,SKC,0.01,111.0,WeatherDisplay:10.37,2015-05-24 16:25:00,
2015-05-24 08:30:00,47.6,42.7,30.10,SW,217,0.0,0.0,83,0.00,SCT,SKC,0.01,97.0,WeatherDisplay:10.37,2015-05-24 16:30:00,
2015-05-24 08:35:00,47.7,42.8,30.10,SW,217,0.0,0.0,83,0.00,SCT,SKC,0.01,95.0,WeatherDisplay:10.37,2015-05-24 16:35:00,
2015-05-24 08:40:00,47.8,42.9,30.10,SW,217,0.0,0.0,83,0.00,SCT,SKC,0.01,70.0,WeatherDisplay:10.37,2015-05-24 16:40:00,
2015-05-24 08:45:00,48.0,43.1,30.10,SW,217,0.0,0.0,83,0.00,SCT,SKC,0.01,76.0,WeatherDisplay:10.37,2015-05-24 16:45:00,
2015-05-24 08:50:00,48.1,43.2,30.10,SW,217,1.2,1.2,83,0.00,SCT,SKC,0.01,111.0,WeatherDisplay:10.37,2015-05-24 16:50:00,
2015-05-24 08:55:00,48.1,43.2,30.10,SW,217,0.0,0.0,83,0.00,SCT,SKC,0.01,102.0,WeatherDisplay:10.37,2015-05-24 16:55:00,
2015-05-24 09:00:00,48.3,43.4,30.10,SW,217,0.0,0.0,83,0.00,SCT,SKC,0.01,93.0,WeatherDisplay:10.37,2015-05-24 17:00:00,
2015-05-24 09:05:00,48.5,43.6,30.10,SW,217,1.2,0.0,83,0.00,SCT,SKC,0.01,102.0,WeatherDisplay:10.37,2015-05-24 17:05:00,
2015-05-24 09:10:00,48.6,43.7,30.10,SW,217,0.0,0.1,83,0.00,SCT,SKC,0.01,141.0,WeatherDisplay:10.37,2015-05-24 17:10:00,
2015-05-24 09:15:00,48.8,43.5,30.10,SW,217,0.0,0.0,82,0.00,SCT,SKC,0.01,151.0,WeatherDisplay:10.37,2015-05-24 17:15:00,
2015-05-24 09:20:00,49.0,44.1,30.10,SW,217,0.0,0.5,83,0.00,BKN,SKC,0.01,156.0,WeatherDisplay:10.37,2015-05-24 17:20:00,
2015-05-24 09:25:00,49.1,44.2,30.10,SW,217,1.2,1.2,83,0.00,BKN,SKC,0.01,146.0,WeatherDisplay:10.37,2015-05-24 17:25:00,
2015-05-24 09:30:00,49.2,44.3,30.10,SW,217,1.2,1.2,83,0.00,BKN,SKC,0.01,148.0,WeatherDisplay:10.37,2015-05-24 17:30:00,
2015-05-24 09:35:00,49.3,44.4,30.10,SW,217,1.2,1.2,83,0.00,BKN,SKC,0.01,167.0,WeatherDisplay:10.37,2015-05-24 17:35:00,
2015-05-24 09:40:00,49.4,44.5,30.10,SW,217,0.0,0.0,83,0.00,BKN,SKC,0.01,181.0,WeatherDisplay:10.37,2015-05-24 17:40:00,
2015-05-24 09:45:00,49.6,44.6,30.10,SW,217,1.2,1.2,83,0.00,BKN,SKC,0.01,200.0,WeatherDisplay:10.37,2015-05-24 17:45:00,
2015-05-24 09:50:00,50.0,45.0,30.10,SW,217,0.0,0.0,83,0.00,BKN,SKC,0.01,197.0,WeatherDisplay:10.37,2015-05-24 17:50:00,
2015-05-24 09:55:00,50.3,45.3,30.10,SW,217,0.0,0.0,83,0.00,BKN,SKC,0.01,202.0,WeatherDisplay:10.37,2015-05-24 17:55:00,
2015-05-24 10:00:00,50.5,45.5,30.09,SW,217,1.2,1.2,83,0.00,BKN,SKC,0.01,200.0,WeatherDisplay:10.37,2015-05-24 18:00:00,
2015-05-24 10:05:00,50.5,45.5,30.09,SW,217,0.0,0.0,83,0.00,OVC,SKC,0.01,220.0,WeatherDisplay:10.37,2015-05-24 18:05:00,
2015-05-24 10:10:00,50.6,45.6,30.09,SW,217,1.2,1.2,83,0.00,OVC,SKC,0.01,213.0,WeatherDisplay:10.37,2015-05-24 18:10:00,
2015-05-24 10:15:00,50.8,45.8,30.09,SW,217,0.0,0.0,83,0.00,OVC,SKC,0.01,195.0,WeatherDisplay:10.37,2015-05-24 18:15:00,
2015-05-24 10:20:00,51.1,46.1,30.09,SW,217,0.0,0.0,83,0.00,OVC,SKC,0.01,199.0,WeatherDisplay:10.37,2015-05-24 18:20:00,
2015-05-24 10:25:00,51.3,46.3,30.09,SW,217,0.0,0.0,83,0.00,OVC,SKC,0.01,237.0,WeatherDisplay:10.37,2015-05-24 18:25:00,
2015-05-24 10:30:00,51.5,46.8,30.09,SW,217,1.2,0.0,84,0.00,OVC,SKC,0.01,241.0,WeatherDisplay:10.37,2015-05-24 18:30:00,
2015-05-24 10:35:00,51.9,46.9,30.09,SW,217,0.0,0.5,83,0.00,OVC,SKC,0.01,248.0,WeatherDisplay:10.37,2015-05-24 18:35:00,
2015-05-24 10:40:00,52.2,47.5,30.09,SW,217,1.0,1.0,84,0.00,OVC,SKC,0.01,223.0,WeatherDisplay:10.37,2015-05-24 18:40:00,
2015-05-24 10:45:00,52.2,47.2,30.09,SW,219,3.5,3.5,83,0.00,OVC,SKC,0.01,195.0,WeatherDisplay:10.37,2015-05-24 18:45:00,
2015-05-24 10:50:00,52.1,47.1,30.09,SW,219,0.0,0.0,83,0.00,OVC,SKC,0.01,155.0,WeatherDisplay:10.37,2015-05-24 18:50:00,
2015-05-24 10:55:00,52.1,47.1,30.09,SW,219,0.0,0.0,83,0.00,OVC,SKC,0.01,128.0,WeatherDisplay:10.37,2015-05-24 18:55:00,
2015-05-24 11:00:00,52.3,47.3,30.09,SW,219,3.0,3.0,83,0.00,OVC,SKC,0.01,111.0,WeatherDisplay:10.37,2015-05-24 19:00:00,
2015-05-24 11:05:00,52.1,47.1,30.10,SW,217,4.6,4.6,83,0.00,BKN,SKC,0.01,102.0,WeatherDisplay:10.37,2015-05-24 19:05:00,
2015-05-24 11:10:00,51.7,46.7,30.10,SW,224,3.5,3.5,83,0.00,BKN,SKC,0.01,83.0,WeatherDisplay:10.37,2015-05-24 19:10:00,
2015-05-24 11:16:00,51.4,46.4,30.10,SW,229,3.5,3.5,83,0.00,BKN,SKC,0.01,81.0,WeatherDisplay:10.37,2015-05-24 19:16:00,
2015-05-24 11:20:00,51.1,46.4,30.10,SW,227,2.3,2.3,84,0.00,BKN,SKC,0.01,105.0,WeatherDisplay:10.37,2015-05-24 19:20:00,
2015-05-24 11:26:00,51.0,46.3,30.10,South,185,3.5,3.5,84,0.00,BKN,SKC,0.01,118.0,WeatherDisplay:10.37,2015-05-24 19:26:00,
2015-05-24 11:31:00,50.9,46.2,30.10,SSW,198,3.5,3.5,84,0.00,BKN,SKC,0.01,139.0,WeatherDisplay:10.37,2015-05-24 19:31:00,
2015-05-24 11:36:00,50.8,46.1,30.10,SSW,202,3.5,3.5,84,0.00,BKN,SKC,0.01,144.0,WeatherDisplay:10.37,2015-05-24 19:36:00,
2015-05-24 11:41:00,50.7,46.0,30.10,SW,225,3.5,3.5,84,0.00,BKN,SKC,0.01,123.0,WeatherDisplay:10.37,2015-05-24 19:41:00,
2015-05-24 11:46:00,50.8,46.1,30.10,SW,225,1.2,0.0,84,0.00,BKN,SKC,0.01,148.0,WeatherDisplay:10.37,2015-05-24 19:46:00,
2015-05-24 11:51:00,50.9,46.2,30.10,SW,216,1.2,1.2,84,0.00,BKN,SKC,0.01,209.0,WeatherDisplay:10.37,2015-05-24 19:51:00,
2015-05-24 11:56:00,51.0,46.0,30.10,SW,216,3.5,3.5,83,0.00,BKN,SKC,0.01,135.0,WeatherDisplay:10.37,2015-05-24 19:56:00,
2015-05-24 12:01:00,51.0,46.0,30.10,SSW,211,3.5,3.5,83,0.00,BKN,SKC,0.01,123.0,WeatherDisplay:10.37,2015-05-24 20:01:00,
2015-05-24 12:06:00,51.0,46.3,30.09,SSW,211,3.5,3.5,84,0.00,BKN,SKC,0.01,125.0,WeatherDisplay:10.37,2015-05-24 20:06:00,
2015-05-24 12:11:00,51.0,46.0,30.10,SSW,212,0.0,0.0,83,0.00,BKN,SKC,0.01,114.0,WeatherDisplay:10.37,2015-05-24 20:11:00,
2015-05-24 12:16:00,51.0,46.0,30.10,SSW,212,3.5,3.5,83,0.00,BKN,SKC,0.01,120.0,WeatherDisplay:10.37,2015-05-24 20:16:00,
2015-05-24 12:21:00,50.8,45.8,30.10,SSW,212,3.5,3.5,83,0.00,BKN,SKC,0.01,120.0,WeatherDisplay:10.37,2015-05-24 20:21:00,
2015-05-24 12:26:00,50.7,45.7,30.10,SSW,212,1.2,1.2,83,0.00,BKN,SKC,0.01,139.0,WeatherDisplay:10.37,2015-05-24 20:26:00,
2015-05-24 12:31:00,50.8,46.1,30.10,SSW,212,3.5,3.5,84,0.00,BKN,SKC,0.01,181.0,WeatherDisplay:10.37,2015-05-24 20:31:00,
2015-05-24 12:36:00,50.8,45.8,30.10,SSW,212,2.3,2.3,83,0.00,BKN,SKC,0.01,183.0,WeatherDisplay:10.37,2015-05-24 20:36:00,
2015-05-24 12:41:00,50.9,46.2,30.10,SSW,212,3.5,3.5,84,0.00,BKN,SKC,0.01,207.0,WeatherDisplay:10.37,2015-05-24 20:41:00,
2015-05-24 12:46:00,51.1,46.4,30.10,SSW,200,4.0,4.0,84,0.00,BKN,SKC,0.01,258.0,WeatherDisplay:10.37,2015-05-24 20:46:00,
2015-05-24 12:51:00,51.1,46.1,30.10,SSW,205,3.0,3.0,83,0.00,BKN,SKC,0.01,257.0,WeatherDisplay:10.37,2015-05-24 20:51:00,
2015-05-24 12:56:00,51.1,46.1,30.10,SSW,205,3.5,3.5,83,0.00,BKN,SKC,0.01,214.0,WeatherDisplay:10.37,2015-05-24 20:56:00,
2015-05-24 13:01:00,51.2,46.2,30.10,SSW,205,1.2,1.2,83,0.00,BKN,SKC,0.01,188.0,WeatherDisplay:10.37,2015-05-24 21:01:00,
2015-05-24 13:06:00,51.1,45.8,30.10,SSW,212,3.5,3.5,82,0.00,BKN,SKC,0.01,190.0,WeatherDisplay:10.37,2015-05-24 21:06:00,
2015-05-24 13:11:00,51.1,46.1,30.10,SSW,212,2.0,2.0,83,0.00,BKN,SKC,0.01,214.0,WeatherDisplay:10.37,2015-05-24 21:11:00,
2015-05-24 13:16:00,51.2,46.2,30.10,SW,216,3.5,3.5,83,0.01,RA,SKC,0.02,258.0,WeatherDisplay:10.37,2015-05-24 21:16:00,
2015-05-24 13:21:00,51.2,46.5,30.10,SW,215,2.3,2.3,84,0.01,BKN,SKC,0.02,366.0,WeatherDisplay:10.37,2015-05-24 21:21:00,
2015-05-24 13:26:00,51.3,46.6,30.10,SSW,201,3.5,3.5,84,0.01,BKN,SKC,0.02,267.0,WeatherDisplay:10.37,2015-05-24 21:26:00,
2015-05-24 13:31:00,51.4,46.4,30.09,SSW,201,3.5,3.5,83,0.01,BKN,SKC,0.02,251.0,WeatherDisplay:10.37,2015-05-24 21:31:00,
2015-05-24 13:36:00,51.5,46.8,30.09,SSW,202,1.2,1.2,84,0.01,BKN,SKC,0.02,272.0,WeatherDisplay:10.37,2015-05-24 21:36:00,
2015-05-24 13:41:00,51.6,46.9,30.09,SSW,202,1.2,1.2,84,0.01,BKN,SKC,0.02,371.0,WeatherDisplay:10.37,2015-05-24 21:41:00,
2015-05-24 13:46:00,51.9,47.2,30.09,SSW,201,2.3,2.3,84,0.01,BKN,SKC,0.02,427.0,WeatherDisplay:10.37,2015-05-24 21:46:00,
2015-05-24 13:51:00,52.1,47.1,30.09,SSW,202,3.5,3.5,83,0.01,BKN,SKC,0.02,348.0,WeatherDisplay:10.37,2015-05-24 21:51:00,
2015-05-24 13:56:00,52.2,47.2,30.09,SSW,211,4.0,4.0,83,0.01,BKN,SKC,0.02,304.0,WeatherDisplay:10.37,2015-05-24 21:56:00,
2015-05-24 14:01:00,52.2,47.2,30.09,SSW,211,2.3,2.3,83,0.01,-RA,SKC,0.02,357.0,WeatherDisplay:10.37,2015-05-24 22:01:00,
2015-05-24 14:06:00,52.4,47.4,30.09,SSW,211,2.3,2.3,83,0.01,-RA,SKC,0.02,422.0,WeatherDisplay:10.37,2015-05-24 22:06:00,
2015-05-24 14:11:00,53.1,48.1,30.09,SSW,211,1.2,1.2,83,0.01,-RA,SKC,0.02,350.0,WeatherDisplay:10.37,2015-05-24 22:11:00,
2015-05-24 14:16:00,53.5,48.5,30.09,SSW,212,3.5,3.5,83,0.00,-RA,SKC,0.02,294.0,WeatherDisplay:10.37,2015-05-24 22:16:00,
2015-05-24 14:21:00,53.7,48.3,30.09,SSW,212,3.5,3.5,82,0.00,-RA,SKC,0.02,297.0,WeatherDisplay:10.37,2015-05-24 22:21:00,
2015-05-24 14:26:00,53.3,47.9,30.09,SW,218,1.2,1.2,82,0.00,-RA,SKC,0.02,362.0,WeatherDisplay:10.37,2015-05-24 22:26:00,
2015-05-24 14:31:00,54.0,48.3,30.08,SW,218,1.2,1.2,81,0.00,-RA,SKC,0.02,555.0,WeatherDisplay:10.37,2015-05-24 22:31:00,